sensor_id;sensor_type;location;lat;lon;timestamp;pressure;altitude;pressure_sealevel;temperature;humidity
35704;BME280;21820;51.112;13.762;2023-01-24T00:01:55;101413.53;;;21.70;58.29
35704;BME280;21820;51.112;13.762;2023-01-24T00:04:21;101417.06;;;21.69;58.31
35704;BME280;21820;51.112;13.762;2023-01-24T00:06:46;101417.06;;;21.69;58.12
35704;BME280;21820;51.112;13.762;2023-01-24T00:09:11;101420.63;;;21.68;58.09
35704;BME280;21820;51.112;13.762;2023-01-24T00:11:37;101420.72;;;21.66;58.24
35704;BME280;21820;51.112;13.762;2023-01-24T00:14:03;101424.25;;;21.65;57.67
35704;BME280;21820;51.112;13.762;2023-01-24T00:16:28;101420.94;;;21.63;58.02
35704;BME280;21820;51.112;13.762;2023-01-24T00:18:53;101429.50;;;21.65;57.81
35704;BME280;21820;51.112;13.762;2023-01-24T00:21:21;101427.94;;;21.63;57.70
35704;BME280;21820;51.112;13.762;2023-01-24T00:23:50;101430.66;;;21.61;58.35
35704;BME280;21820;51.112;13.762;2023-01-24T00:26:16;101404.19;;;21.52;58.32
35704;BME280;21820;51.112;13.762;2023-01-24T00:28:42;101417.56;;;21.61;58.13
35704;BME280;21820;51.112;13.762;2023-01-24T00:31:08;101422.03;;;21.59;58.91
35704;BME280;21820;51.112;13.762;2023-01-24T00:33:33;101416.63;;;21.62;57.82
35704;BME280;21820;51.112;13.762;2023-01-24T00:35:59;101419.22;;;21.62;58.52
35704;BME280;21820;51.112;13.762;2023-01-24T00:38:24;101393.91;;;21.49;57.67
35704;BME280;21820;51.112;13.762;2023-01-24T00:40:50;101415.84;;;21.60;57.86
35704;BME280;21820;51.112;13.762;2023-01-24T00:43:16;101418.22;;;21.65;57.75
35704;BME280;21820;51.112;13.762;2023-01-24T00:45:43;101421.47;;;21.82;57.08
35704;BME280;21820;51.112;13.762;2023-01-24T00:48:09;101428.38;;;21.98;56.44
35704;BME280;21820;51.112;13.762;2023-01-24T00:50:35;101428.31;;;22.12;55.84
35704;BME280;21820;51.112;13.762;2023-01-24T00:53:00;101430.34;;;22.21;55.78
35704;BME280;21820;51.112;13.762;2023-01-24T00:55:26;101436.59;;;22.45;55.19
35704;BME280;21820;51.112;13.762;2023-01-24T00:57:52;101433.97;;;22.59;54.25
35704;BME280;21820;51.112;13.762;2023-01-24T01:00:17;101436.59;;;22.71;54.08
35704;BME280;21820;51.112;13.762;2023-01-24T01:02:43;101439.75;;;22.76;53.75
35704;BME280;21820;51.112;13.762;2023-01-24T01:05:08;101434.28;;;22.67;53.79
35704;BME280;21820;51.112;13.762;2023-01-24T01:07:34;101440.47;;;22.66;54.46
35704;BME280;21820;51.112;13.762;2023-01-24T01:09:59;101438.25;;;22.60;54.42
35704;BME280;21820;51.112;13.762;2023-01-24T01:12:24;101440.50;;;22.52;54.94
35704;BME280;21820;51.112;13.762;2023-01-24T01:14:50;101432.84;;;22.49;54.58
35704;BME280;21820;51.112;13.762;2023-01-24T01:17:15;101432.53;;;22.41;55.02
35704;BME280;21820;51.112;13.762;2023-01-24T01:19:41;101433.31;;;22.29;55.54
35704;BME280;21820;51.112;13.762;2023-01-24T01:22:07;101438.09;;;22.22;55.15
35704;BME280;21820;51.112;13.762;2023-01-24T01:24:32;101437.66;;;22.16;55.62
35704;BME280;21820;51.112;13.762;2023-01-24T01:26:59;101438.97;;;22.09;56.19
35704;BME280;21820;51.112;13.762;2023-01-24T01:29:24;101408.44;;;21.95;56.51
35704;BME280;21820;51.112;13.762;2023-01-24T01:31:49;101429.13;;;22.00;56.25
35704;BME280;21820;51.112;13.762;2023-01-24T01:34:15;101434.72;;;21.93;56.50
35704;BME280;21820;51.112;13.762;2023-01-24T01:36:40;101435.13;;;21.87;56.88
35704;BME280;21820;51.112;13.762;2023-01-24T01:39:05;101431.00;;;21.83;56.35
35704;BME280;21820;51.112;13.762;2023-01-24T01:41:31;101424.28;;;21.79;56.66
35704;BME280;21820;51.112;13.762;2023-01-24T01:44:17;101427.19;;;21.75;57.37
35704;BME280;21820;51.112;13.762;2023-01-24T01:47:01;101430.91;;;21.71;57.48
35704;BME280;21820;51.112;13.762;2023-01-24T01:49:27;101429.13;;;21.71;57.42
35704;BME280;21820;51.112;13.762;2023-01-24T01:52:02;101423.34;;;21.66;57.57
35704;BME280;21820;51.112;13.762;2023-01-24T01:54:35;101419.97;;;21.64;57.55
35704;BME280;21820;51.112;13.762;2023-01-24T01:57:06;101414.19;;;21.59;57.61
35704;BME280;21820;51.112;13.762;2023-01-24T01:59:46;101412.53;;;21.58;57.38
35704;BME280;21820;51.112;13.762;2023-01-24T02:02:12;101413.44;;;21.57;58.06
35704;BME280;21820;51.112;13.762;2023-01-24T02:04:41;101411.97;;;21.53;58.08
35704;BME280;21820;51.112;13.762;2023-01-24T02:07:13;101405.03;;;21.52;58.12
35704;BME280;21820;51.112;13.762;2023-01-24T02:09:42;101398.22;;;21.50;57.96
35704;BME280;21820;51.112;13.762;2023-01-24T02:12:12;101400.00;;;21.49;57.82
35704;BME280;21820;51.112;13.762;2023-01-24T02:14:39;101395.81;;;21.47;57.96
35704;BME280;21820;51.112;13.762;2023-01-24T02:17:23;101375.44;;;21.38;58.18
35704;BME280;21820;51.112;13.762;2023-01-24T02:25:31;101402.75;;;21.88;56.33
35704;BME280;21820;51.112;13.762;2023-01-24T02:27:58;101398.69;;;22.11;55.60
35704;BME280;21820;51.112;13.762;2023-01-24T02:30:24;101377.50;;;22.14;55.59
35704;BME280;21820;51.112;13.762;2023-01-24T02:32:50;101393.00;;;22.44;55.33
35704;BME280;21820;51.112;13.762;2023-01-24T02:35:41;101395.78;;;22.55;54.78
35704;BME280;21820;51.112;13.762;2023-01-24T02:38:15;101383.09;;;22.61;53.76
35704;BME280;21820;51.112;13.762;2023-01-24T02:40:42;101397.16;;;22.73;53.95
35704;BME280;21820;51.112;13.762;2023-01-24T02:43:11;101382.66;;;22.55;54.63
35704;BME280;21820;51.112;13.762;2023-01-24T02:45:38;101400.09;;;22.56;54.32
35704;BME280;21820;51.112;13.762;2023-01-24T02:48:04;101403.63;;;22.55;54.22
35704;BME280;21820;51.112;13.762;2023-01-24T02:50:30;101408.50;;;22.47;54.73
35704;BME280;21820;51.112;13.762;2023-01-24T02:53:20;101406.53;;;22.38;55.37
35704;BME280;21820;51.112;13.762;2023-01-24T02:56:00;101411.31;;;22.31;55.76
35704;BME280;21820;51.112;13.762;2023-01-24T02:58:44;101412.94;;;22.20;55.11
35704;BME280;21820;51.112;13.762;2023-01-24T03:01:10;101410.63;;;22.15;56.06
35704;BME280;21820;51.112;13.762;2023-01-24T03:03:36;101398.41;;;22.02;56.22
35704;BME280;21820;51.112;13.762;2023-01-24T03:06:02;101412.66;;;21.98;56.47
35704;BME280;21820;51.112;13.762;2023-01-24T03:08:30;101410.50;;;21.90;56.60
35704;BME280;21820;51.112;13.762;2023-01-24T03:10:57;101406.31;;;21.87;56.86
35704;BME280;21820;51.112;13.762;2023-01-24T03:13:22;101413.81;;;21.79;57.09
35704;BME280;21820;51.112;13.762;2023-01-24T03:16:07;101403.69;;;21.73;56.59
35704;BME280;21820;51.112;13.762;2023-01-24T03:18:52;101414.16;;;21.73;57.31
35704;BME280;21820;51.112;13.762;2023-01-24T03:21:37;101412.88;;;21.66;57.11
35704;BME280;21820;51.112;13.762;2023-01-24T03:24:21;101418.13;;;21.66;56.86
35704;BME280;21820;51.112;13.762;2023-01-24T03:27:06;101393.72;;;21.52;56.99
35704;BME280;21820;51.112;13.762;2023-01-24T03:29:50;101415.97;;;21.59;57.02
35704;BME280;21820;51.112;13.762;2023-01-24T03:32:34;101406.19;;;21.48;57.21
35704;BME280;21820;51.112;13.762;2023-01-24T03:35:18;101420.72;;;21.52;57.78
35704;BME280;21820;51.112;13.762;2023-01-24T03:37:44;101425.97;;;21.52;57.41
35704;BME280;21820;51.112;13.762;2023-01-24T03:40:28;101418.41;;;21.48;57.75
35704;BME280;21820;51.112;13.762;2023-01-24T03:42:53;101416.81;;;21.45;57.66
35704;BME280;21820;51.112;13.762;2023-01-24T03:45:27;101415.59;;;21.51;58.03
35704;BME280;21820;51.112;13.762;2023-01-24T03:47:55;101417.38;;;21.64;57.57
35704;BME280;21820;51.112;13.762;2023-01-24T03:50:31;101417.53;;;21.75;56.89
35704;BME280;21820;51.112;13.762;2023-01-24T03:53:16;101419.34;;;22.02;56.24
35704;BME280;21820;51.112;13.762;2023-01-24T03:55:42;101413.34;;;22.14;55.80
35704;BME280;21820;51.112;13.762;2023-01-24T03:58:08;101410.69;;;22.28;54.98
35704;BME280;21820;51.112;13.762;2023-01-24T04:00:35;101410.94;;;22.50;55.08
35704;BME280;21820;51.112;13.762;2023-01-24T04:03:01;101420.97;;;22.57;54.05
35704;BME280;21820;51.112;13.762;2023-01-24T04:05:27;101405.75;;;22.62;54.00
35704;BME280;21820;51.112;13.762;2023-01-24T04:07:55;101416.47;;;22.72;54.25
35704;BME280;21820;51.112;13.762;2023-01-24T04:10:21;101412.47;;;22.66;53.67
35704;BME280;21820;51.112;13.762;2023-01-24T04:12:47;101416.03;;;22.65;54.02
35704;BME280;21820;51.112;13.762;2023-01-24T04:15:20;101415.81;;;22.56;54.14
35704;BME280;21820;51.112;13.762;2023-01-24T04:17:46;101416.00;;;22.53;54.75
35704;BME280;21820;51.112;13.762;2023-01-24T04:20:12;101408.63;;;22.45;54.41
35704;BME280;21820;51.112;13.762;2023-01-24T04:22:38;101417.81;;;22.38;55.31
35704;BME280;21820;51.112;13.762;2023-01-24T04:25:04;101403.75;;;22.27;54.88
35704;BME280;21820;51.112;13.762;2023-01-24T04:27:29;101405.06;;;22.20;55.30
35704;BME280;21820;51.112;13.762;2023-01-24T04:29:54;101414.38;;;22.11;55.33
35704;BME280;21820;51.112;13.762;2023-01-24T04:32:20;101418.34;;;22.04;56.20
35704;BME280;21820;51.112;13.762;2023-01-24T04:34:45;101410.56;;;22.03;56.27
35704;BME280;21820;51.112;13.762;2023-01-24T04:37:10;101403.06;;;22.11;56.11
35704;BME280;21820;51.112;13.762;2023-01-24T04:39:36;101405.88;;;22.61;54.40
35704;BME280;21820;51.112;13.762;2023-01-24T04:42:01;101383.75;;;23.02;52.43
35704;BME280;21820;51.112;13.762;2023-01-24T04:44:26;101408.25;;;23.64;51.48
35704;BME280;21820;51.112;13.762;2023-01-24T04:46:52;101411.97;;;23.98;50.54
35704;BME280;21820;51.112;13.762;2023-01-24T04:49:17;101417.22;;;24.21;49.38
35704;BME280;21820;51.112;13.762;2023-01-24T04:51:43;101418.56;;;24.27;49.40
35704;BME280;21820;51.112;13.762;2023-01-24T04:54:09;101414.06;;;24.40;49.17
35704;BME280;21820;51.112;13.762;2023-01-24T04:56:35;101410.78;;;24.60;49.04
35704;BME280;21820;51.112;13.762;2023-01-24T04:59:01;101411.28;;;24.54;48.83
35704;BME280;21820;51.112;13.762;2023-01-24T05:01:26;101412.47;;;24.61;48.74
35704;BME280;21820;51.112;13.762;2023-01-24T05:03:51;101418.56;;;24.62;48.68
35704;BME280;21820;51.112;13.762;2023-01-24T05:06:23;101414.03;;;24.64;48.50
35704;BME280;21820;51.112;13.762;2023-01-24T05:08:49;101420.03;;;24.66;49.01
35704;BME280;21820;51.112;13.762;2023-01-24T05:11:14;101416.44;;;24.67;48.82
35704;BME280;21820;51.112;13.762;2023-01-24T05:13:40;101418.34;;;24.65;48.35
35704;BME280;21820;51.112;13.762;2023-01-24T05:16:05;101416.34;;;24.68;49.09
35704;BME280;21820;51.112;13.762;2023-01-24T05:18:30;101428.75;;;24.66;48.37
35704;BME280;21820;51.112;13.762;2023-01-24T05:21:06;101420.97;;;24.65;48.64
35704;BME280;21820;51.112;13.762;2023-01-24T05:23:32;101418.63;;;24.73;48.18
35704;BME280;21820;51.112;13.762;2023-01-24T05:25:59;101424.50;;;24.76;48.61
35704;BME280;21820;51.112;13.762;2023-01-24T05:28:24;101416.00;;;24.73;48.24
35704;BME280;21820;51.112;13.762;2023-01-24T05:30:50;101405.91;;;24.67;48.18
35704;BME280;21820;51.112;13.762;2023-01-24T05:33:15;101419.13;;;24.78;48.03
35704;BME280;21820;51.112;13.762;2023-01-24T05:35:40;101425.00;;;24.81;48.26
35704;BME280;21820;51.112;13.762;2023-01-24T05:38:08;101420.97;;;24.65;48.53
35704;BME280;21820;51.112;13.762;2023-01-24T05:40:33;101431.50;;;24.65;48.72
35704;BME280;21820;51.112;13.762;2023-01-24T05:42:59;101431.94;;;24.48;49.43
35704;BME280;21820;51.112;13.762;2023-01-24T05:45:24;101432.44;;;24.29;49.68
35704;BME280;21820;51.112;13.762;2023-01-24T05:47:49;101433.50;;;24.03;50.30
35704;BME280;21820;51.112;13.762;2023-01-24T05:50:15;101431.72;;;23.91;50.81
35704;BME280;21820;51.112;13.762;2023-01-24T05:52:40;101419.13;;;23.83;50.50
35704;BME280;21820;51.112;13.762;2023-01-24T05:55:06;101435.91;;;23.93;50.43
35704;BME280;21820;51.112;13.762;2023-01-24T05:57:31;101441.59;;;23.87;50.63
35704;BME280;21820;51.112;13.762;2023-01-24T05:59:57;101443.06;;;23.91;50.43
35704;BME280;21820;51.112;13.762;2023-01-24T06:02:22;101441.59;;;23.87;50.79
35704;BME280;21820;51.112;13.762;2023-01-24T06:04:48;101449.88;;;23.94;50.20
35704;BME280;21820;51.112;13.762;2023-01-24T06:07:13;101445.69;;;23.91;50.73
35704;BME280;21820;51.112;13.762;2023-01-24T06:09:38;101448.00;;;23.96;50.51
35704;BME280;21820;51.112;13.762;2023-01-24T06:12:04;101461.78;;;23.99;50.20
35704;BME280;21820;51.112;13.762;2023-01-24T06:14:29;101454.63;;;24.01;50.00
35704;BME280;21820;51.112;13.762;2023-01-24T06:16:55;101456.31;;;24.02;50.63
35704;BME280;21820;51.112;13.762;2023-01-24T06:19:20;101457.78;;;24.06;50.21
35704;BME280;21820;51.112;13.762;2023-01-24T06:21:54;101459.94;;;24.12;50.10
35704;BME280;21820;51.112;13.762;2023-01-24T06:24:25;101469.94;;;24.07;49.85
35704;BME280;21820;51.112;13.762;2023-01-24T06:26:51;101466.50;;;23.94;50.34
35704;BME280;21820;51.112;13.762;2023-01-24T06:29:18;101466.41;;;23.83;51.24
35704;BME280;21820;51.112;13.762;2023-01-24T06:37:13;101454.44;;;23.79;50.79
35704;BME280;21820;51.112;13.762;2023-01-24T06:39:48;101459.47;;;23.82;50.61
35704;BME280;21820;51.112;13.762;2023-01-24T06:42:16;101464.72;;;23.82;50.68
35704;BME280;21820;51.112;13.762;2023-01-24T06:44:41;101465.88;;;23.91;51.09
35704;BME280;21820;51.112;13.762;2023-01-24T06:47:09;101467.03;;;23.99;50.24
35704;BME280;21820;51.112;13.762;2023-01-24T06:49:35;101468.72;;;24.00;50.92
35704;BME280;21820;51.112;13.762;2023-01-24T06:52:01;101464.25;;;24.13;50.10
35704;BME280;21820;51.112;13.762;2023-01-24T06:54:26;101469.28;;;24.16;49.88
35704;BME280;21820;51.112;13.762;2023-01-24T06:56:51;101473.59;;;24.17;50.08
35704;BME280;21820;51.112;13.762;2023-01-24T06:59:17;101469.22;;;24.05;50.09
35704;BME280;21820;51.112;13.762;2023-01-24T07:01:42;101470.91;;;23.94;50.63
35704;BME280;21820;51.112;13.762;2023-01-24T07:04:07;101463.78;;;23.83;51.24
35704;BME280;21820;51.112;13.762;2023-01-24T07:06:33;101461.88;;;23.85;51.28
35704;BME280;21820;51.112;13.762;2023-01-24T07:08:58;101462.00;;;23.84;50.81
35704;BME280;21820;51.112;13.762;2023-01-24T07:11:23;101465.25;;;23.87;51.00
35704;BME280;21820;51.112;13.762;2023-01-24T07:13:49;101472.28;;;23.87;51.05
35704;BME280;21820;51.112;13.762;2023-01-24T07:16:14;101473.97;;;23.88;51.30
35704;BME280;21820;51.112;13.762;2023-01-24T07:18:40;101478.38;;;23.87;51.04
35704;BME280;21820;51.112;13.762;2023-01-24T07:21:07;101481.28;;;23.95;50.51
35704;BME280;21820;51.112;13.762;2023-01-24T07:23:33;101477.31;;;24.02;50.94
35704;BME280;21820;51.112;13.762;2023-01-24T07:25:59;101473.97;;;24.00;50.36
35704;BME280;21820;51.112;13.762;2023-01-24T07:28:25;101469.50;;;24.13;50.60
35704;BME280;21820;51.112;13.762;2023-01-24T07:30:53;101469.50;;;24.13;49.97
35704;BME280;21820;51.112;13.762;2023-01-24T07:33:19;101464.47;;;24.10;50.23
35704;BME280;21820;51.112;13.762;2023-01-24T07:35:45;101471.91;;;24.16;50.15
35704;BME280;21820;51.112;13.762;2023-01-24T07:38:11;101474.97;;;24.10;50.65
35704;BME280;21820;51.112;13.762;2023-01-24T07:40:37;101480.28;;;23.98;50.43
35704;BME280;21820;51.112;13.762;2023-01-24T07:43:04;101488.56;;;23.92;51.19
35704;BME280;21820;51.112;13.762;2023-01-24T07:45:30;101473.13;;;23.87;51.12
35704;BME280;21820;51.112;13.762;2023-01-24T07:47:59;101486.16;;;23.89;51.16
35704;BME280;21820;51.112;13.762;2023-01-24T07:50:25;101492.78;;;23.82;51.06
35704;BME280;21820;51.112;13.762;2023-01-24T07:52:53;101495.81;;;23.88;51.03
35704;BME280;21820;51.112;13.762;2023-01-24T07:55:20;101497.06;;;23.95;50.65
35704;BME280;21820;51.112;13.762;2023-01-24T07:57:46;101494.56;;;24.06;50.33
35704;BME280;21820;51.112;13.762;2023-01-24T08:00:11;101498.34;;;24.02;50.47
35704;BME280;21820;51.112;13.762;2023-01-24T08:02:37;101502.72;;;24.14;50.36
35704;BME280;21820;51.112;13.762;2023-01-24T08:05:02;101500.28;;;24.11;50.71
35704;BME280;21820;51.112;13.762;2023-01-24T08:07:28;101505.66;;;24.22;50.11
35704;BME280;21820;51.112;13.762;2023-01-24T08:09:53;101503.78;;;24.12;49.76
35704;BME280;21820;51.112;13.762;2023-01-24T08:12:19;101513.16;;;24.03;50.91
35704;BME280;21820;51.112;13.762;2023-01-24T08:14:45;101514.53;;;23.96;50.78
35704;BME280;21820;51.112;13.762;2023-01-24T08:17:10;101513.91;;;23.93;51.08
35704;BME280;21820;51.112;13.762;2023-01-24T08:19:35;101522.72;;;23.92;51.41
35704;BME280;21820;51.112;13.762;2023-01-24T08:22:02;101521.56;;;23.83;51.06
35704;BME280;21820;51.112;13.762;2023-01-24T08:24:28;101522.41;;;23.96;50.72
35704;BME280;21820;51.112;13.762;2023-01-24T08:26:53;101525.03;;;23.96;51.01
35704;BME280;21820;51.112;13.762;2023-01-24T08:29:18;101533.09;;;23.93;51.23
35704;BME280;21820;51.112;13.762;2023-01-24T08:31:44;101531.88;;;23.99;50.51
35704;BME280;21820;51.112;13.762;2023-01-24T08:34:10;101528.00;;;24.04;50.29
35704;BME280;21820;51.112;13.762;2023-01-24T08:36:35;101534.69;;;24.08;50.58
35704;BME280;21820;51.112;13.762;2023-01-24T08:39:00;101531.66;;;24.14;50.83
35704;BME280;21820;51.112;13.762;2023-01-24T08:41:28;101537.31;;;24.08;50.65
35704;BME280;21820;51.112;13.762;2023-01-24T08:43:53;101542.28;;;24.00;51.29
35704;BME280;21820;51.112;13.762;2023-01-24T08:46:18;101540.47;;;23.88;50.74
35704;BME280;21820;51.112;13.762;2023-01-24T08:48:44;101542.09;;;23.78;51.02
35704;BME280;21820;51.112;13.762;2023-01-24T08:51:09;101544.19;;;23.73;51.56
35704;BME280;21820;51.112;13.762;2023-01-24T08:53:34;101544.19;;;23.73;51.68
35704;BME280;21820;51.112;13.762;2023-01-24T08:56:00;101544.28;;;23.72;51.71
35704;BME280;21820;51.112;13.762;2023-01-24T08:58:25;101546.59;;;23.76;51.67
35704;BME280;21820;51.112;13.762;2023-01-24T09:00:51;101541.88;;;23.81;51.65
35704;BME280;21820;51.112;13.762;2023-01-24T09:03:17;101524.63;;;23.77;50.62
35704;BME280;21820;51.112;13.762;2023-01-24T09:05:43;101540.38;;;23.90;50.61
35704;BME280;21820;51.112;13.762;2023-01-24T09:08:09;101537.84;;;23.88;50.77
35704;BME280;21820;51.112;13.762;2023-01-24T09:10:34;101538.25;;;23.95;50.99
35704;BME280;21820;51.112;13.762;2023-01-24T09:13:01;101545.44;;;23.93;50.70
35704;BME280;21820;51.112;13.762;2023-01-24T09:15:26;101541.22;;;23.90;50.91
35704;BME280;21820;51.112;13.762;2023-01-24T09:17:52;101526.94;;;23.69;51.49
35704;BME280;21820;51.112;13.762;2023-01-24T09:20:17;101541.63;;;23.72;51.63
35704;BME280;21820;51.112;13.762;2023-01-24T09:22:43;101533.56;;;23.75;51.18
35704;BME280;21820;51.112;13.762;2023-01-24T09:25:09;101531.97;;;23.72;51.08
35704;BME280;21820;51.112;13.762;2023-01-24T09:27:35;101542.09;;;23.78;51.03
35704;BME280;21820;51.112;13.762;2023-01-24T09:30:01;101525.28;;;23.68;51.46
35704;BME280;21820;51.112;13.762;2023-01-24T09:32:26;101541.34;;;23.76;51.21
35704;BME280;21820;51.112;13.762;2023-01-24T09:34:52;101534.50;;;23.86;50.82
35704;BME280;21820;51.112;13.762;2023-01-24T09:37:18;101532.81;;;23.85;51.38
35704;BME280;21820;51.112;13.762;2023-01-24T09:39:44;101538.69;;;23.89;51.04
35704;BME280;21820;51.112;13.762;2023-01-24T09:42:37;101541.88;;;23.81;51.20
35704;BME280;21820;51.112;13.762;2023-01-24T09:45:21;101542.50;;;23.72;51.71
35704;BME280;21820;51.112;13.762;2023-01-24T09:50:24;101541.56;;;23.61;51.76
35704;BME280;21820;51.112;13.762;2023-01-24T09:52:54;101542.28;;;23.63;51.74
35704;BME280;21820;51.112;13.762;2023-01-24T09:55:39;101546.41;;;23.67;52.14
35704;BME280;21820;51.112;13.762;2023-01-24T09:58:22;101541.84;;;23.69;51.53
35704;BME280;21820;51.112;13.762;2023-01-24T10:00:58;101522.66;;;23.68;51.37
35704;BME280;21820;51.112;13.762;2023-01-24T10:03:24;101536.63;;;23.81;51.07
35704;BME280;21820;51.112;13.762;2023-01-24T10:06:16;101536.63;;;23.81;50.95
35704;BME280;21820;51.112;13.762;2023-01-24T10:19:36;101541.34;;;23.76;51.81
35704;BME280;21820;51.112;13.762;2023-01-24T10:25:05;101528.03;;;23.67;51.88
35704;BME280;21820;51.112;13.762;2023-01-24T10:27:36;101529.06;;;23.64;51.94
35704;BME280;21820;51.112;13.762;2023-01-24T10:30:17;101519.06;;;23.69;51.75
35704;BME280;21820;51.112;13.762;2023-01-24T10:32:44;101523.19;;;23.73;51.15
35704;BME280;21820;51.112;13.762;2023-01-24T10:35:13;101524.00;;;23.74;51.73
35704;BME280;21820;51.112;13.762;2023-01-24T10:37:42;101521.78;;;23.80;51.66
35704;BME280;21820;51.112;13.762;2023-01-24T10:40:14;101522.75;;;23.79;51.34
35704;BME280;21820;51.112;13.762;2023-01-24T10:42:41;101514.56;;;23.71;51.24
35704;BME280;21820;51.112;13.762;2023-01-24T10:47:58;101518.56;;;23.64;52.14
35704;BME280;21820;51.112;13.762;2023-01-24T10:50:34;101529.69;;;23.55;51.90
35704;BME280;21820;51.112;13.762;2023-01-24T10:53:12;101525.16;;;23.57;51.97
35704;BME280;21820;51.112;13.762;2023-01-24T10:55:39;101515.81;;;23.66;51.67
35704;BME280;21820;51.112;13.762;2023-01-24T10:58:22;101514.03;;;23.66;52.00
35704;BME280;21820;51.112;13.762;2023-01-24T11:00:56;101507.59;;;23.70;51.22
35704;BME280;21820;51.112;13.762;2023-01-24T11:03:25;101508.25;;;23.74;51.88
35704;BME280;21820;51.112;13.762;2023-01-24T11:05:53;101512.22;;;23.79;51.58
35704;BME280;21820;51.112;13.762;2023-01-24T11:08:32;101507.84;;;23.80;51.63
35704;BME280;21820;51.112;13.762;2023-01-24T11:10:58;101504.44;;;23.90;51.45
35704;BME280;21820;51.112;13.762;2023-01-24T11:13:37;101508.25;;;23.86;51.51
35704;BME280;21820;51.112;13.762;2023-01-24T11:16:20;101508.00;;;23.89;51.25
35704;BME280;21820;51.112;13.762;2023-01-24T11:18:49;101497.72;;;23.86;51.44
35704;BME280;21820;51.112;13.762;2023-01-24T11:21:18;101483.25;;;23.68;51.34
35704;BME280;21820;51.112;13.762;2023-01-24T11:23:44;101504.16;;;23.70;51.58
35704;BME280;21820;51.112;13.762;2023-01-24T11:26:28;101501.13;;;23.63;51.79
35704;BME280;21820;51.112;13.762;2023-01-24T11:29:00;101507.59;;;23.70;51.70
35704;BME280;21820;51.112;13.762;2023-01-24T11:34:17;101501.66;;;23.68;51.36
35704;BME280;21820;51.112;13.762;2023-01-24T11:36:58;101498.38;;;23.77;51.30
35704;BME280;21820;51.112;13.762;2023-01-24T11:39:44;101503.84;;;23.74;51.48
35704;BME280;21820;51.112;13.762;2023-01-24T11:42:35;101499.72;;;23.83;51.32
35704;BME280;21820;51.112;13.762;2023-01-24T11:47:35;101495.00;;;23.75;51.74
35704;BME280;21820;51.112;13.762;2023-01-24T11:50:19;101494.81;;;23.66;51.81
35704;BME280;21820;51.112;13.762;2023-01-24T12:01:33;101492.31;;;23.39;52.90
35704;BME280;21820;51.112;13.762;2023-01-24T12:04:07;101491.88;;;23.33;52.36
35704;BME280;21820;51.112;13.762;2023-01-24T12:09:40;101487.06;;;23.39;52.29
35704;BME280;21820;51.112;13.762;2023-01-24T12:12:15;101487.06;;;23.39;52.15
35704;BME280;21820;51.112;13.762;2023-01-24T12:14:57;101477.81;;;23.46;51.90
35704;BME280;21820;51.112;13.762;2023-01-24T12:17:37;101475.94;;;23.48;51.96
35704;BME280;21820;51.112;13.762;2023-01-24T12:22:56;101478.00;;;23.68;51.62
35704;BME280;21820;51.112;13.762;2023-01-24T12:25:44;101482.41;;;23.68;51.52
35704;BME280;21820;51.112;13.762;2023-01-24T12:28:15;101487.56;;;23.69;51.52
35704;BME280;21820;51.112;13.762;2023-01-24T12:30:51;101481.88;;;23.75;51.53
35704;BME280;21820;51.112;13.762;2023-01-24T12:33:26;101490.03;;;23.83;51.32
35704;BME280;21820;51.112;13.762;2023-01-24T12:35:57;101481.13;;;23.86;51.13
35704;BME280;21820;51.112;13.762;2023-01-24T12:38:35;101485.00;;;23.80;50.91
35704;BME280;21820;51.112;13.762;2023-01-24T12:41:19;101484.72;;;23.72;51.49
35704;BME280;21820;51.112;13.762;2023-01-24T12:43:56;101481.78;;;23.64;51.39
35704;BME280;21820;51.112;13.762;2023-01-24T12:46:25;101478.63;;;23.59;51.79
35704;BME280;21820;51.112;13.762;2023-01-24T12:51:51;101476.53;;;23.64;52.06
35704;BME280;21820;51.112;13.762;2023-01-24T12:54:26;101473.78;;;23.66;51.52
35704;BME280;21820;51.112;13.762;2023-01-24T12:57:02;101455.75;;;23.61;51.23
35704;BME280;21820;51.112;13.762;2023-01-24T12:59:30;101472.09;;;23.77;51.00
35704;BME280;21820;51.112;13.762;2023-01-24T13:13:39;101456.38;;;23.52;51.43
35704;BME280;21820;51.112;13.762;2023-01-24T13:16:26;101472.25;;;23.63;51.63
35704;BME280;21820;51.112;13.762;2023-01-24T13:24:38;101486.72;;;23.69;51.21
35704;BME280;21820;51.112;13.762;2023-01-24T13:32:22;101472.16;;;23.88;51.34
35704;BME280;21820;51.112;13.762;2023-01-24T13:34:55;101476.59;;;23.88;51.42
35704;BME280;21820;51.112;13.762;2023-01-24T13:37:24;101466.41;;;23.83;50.85
35704;BME280;21820;51.112;13.762;2023-01-24T13:42:39;101472.75;;;23.68;51.31
35704;BME280;21820;51.112;13.762;2023-01-24T13:47:50;101470.44;;;23.64;51.41
35704;BME280;21820;51.112;13.762;2023-01-24T13:50:22;101472.94;;;23.65;51.98
35704;BME280;21820;51.112;13.762;2023-01-24T13:52:50;101476.94;;;23.71;51.98
35704;BME280;21820;51.112;13.762;2023-01-24T13:57:44;101471.75;;;23.82;51.03
35704;BME280;21820;51.112;13.762;2023-01-24T14:07:54;101465.19;;;23.76;51.43
35704;BME280;21820;51.112;13.762;2023-01-24T14:10:22;101465.81;;;23.67;51.81
35704;BME280;21820;51.112;13.762;2023-01-24T14:12:56;101460.03;;;23.62;51.21
35704;BME280;21820;51.112;13.762;2023-01-24T14:15:38;101465.06;;;23.65;52.13
35704;BME280;21820;51.112;13.762;2023-01-24T14:21:16;101469.16;;;23.69;51.39
35704;BME280;21820;51.112;13.762;2023-01-24T14:23:44;101457.41;;;23.62;51.47
35704;BME280;21820;51.112;13.762;2023-01-24T14:26:15;101481.44;;;23.81;51.25